createdAt,value
2022-11-04T00:00:01.245Z,3.80
2022-11-04T00:01:01.323Z,4.30
2022-11-04T00:02:01.305Z,3.80
2022-11-04T00:03:01.219Z,5.00
2022-11-04T00:04:01.211Z,4.70
2022-11-04T00:05:01.217Z,4.70
2022-11-04T00:06:01.197Z,4.60
2022-11-04T00:07:01.182Z,5.50
2022-11-04T00:08:01.178Z,5.10
2022-11-04T00:09:01.162Z,4.10
2022-11-04T00:10:01.172Z,4.80
2022-11-04T00:11:01.165Z,5.60
2022-11-04T00:12:01.142Z,4.30
2022-11-04T00:13:01.140Z,4.70
2022-11-04T00:14:01.157Z,3.90
2022-11-04T00:15:01.684Z,4.30
2022-11-04T00:16:01.124Z,4.10
2022-11-04T00:17:01.104Z,4.20
2022-11-04T00:18:01.108Z,4.20
2022-11-04T00:19:01.099Z,4.50
2022-11-04T00:20:01.084Z,4.60
2022-11-04T00:21:01.085Z,4.30
2022-11-04T00:22:01.083Z,4.20
2022-11-04T00:23:01.067Z,4.20
2022-11-04T00:24:01.336Z,3.90
2022-11-04T00:25:01.051Z,4.30
2022-11-04T00:26:01.048Z,4.40
2022-11-04T00:27:01.033Z,3.50
2022-11-04T00:28:01.029Z,3.90
2022-11-04T00:29:01.013Z,3.60
2022-11-04T00:30:01.065Z,4.00
2022-11-04T00:31:01.016Z,4.20
2022-11-04T00:32:00.993Z,3.30
2022-11-04T00:33:00.988Z,4.40
2022-11-04T00:34:00.984Z,3.90
2022-11-04T00:35:01.680Z,3.50
2022-11-04T00:36:00.967Z,4.20
2022-11-04T00:37:00.951Z,4.60
2022-11-04T00:38:00.945Z,4.40
2022-11-04T00:39:00.944Z,4.50
2022-11-04T00:40:00.935Z,4.70
2022-11-04T00:41:00.943Z,4.00
2022-11-04T00:42:00.914Z,4.30
2022-11-04T00:43:01.719Z,4.70
2022-11-04T00:44:00.900Z,5.20
2022-11-04T00:45:00.900Z,5.00
2022-11-04T00:46:01.263Z,4.40
2022-11-04T00:47:00.878Z,4.10
2022-11-04T00:48:00.878Z,4.30
2022-11-04T00:49:00.880Z,4.30
2022-11-04T00:50:00.868Z,3.80
2022-11-04T00:51:00.899Z,4.00
2022-11-04T00:52:00.845Z,4.40
2022-11-04T00:53:00.843Z,4.20
2022-11-04T00:54:00.835Z,4.10
2022-11-04T00:55:00.822Z,5.00
2022-11-04T00:56:00.816Z,4.30
2022-11-04T00:57:00.824Z,4.00
2022-11-04T00:58:00.807Z,4.60
2022-11-04T00:59:00.789Z,4.40
2022-11-04T01:00:00.793Z,4.10
2022-11-04T01:01:00.925Z,4.20
2022-11-04T01:02:01.268Z,4.50
2022-11-04T01:03:00.767Z,4.50
2022-11-04T01:04:00.758Z,5.10
2022-11-04T01:05:00.776Z,4.90
2022-11-04T01:06:00.751Z,4.80
2022-11-04T01:07:00.733Z,4.90
2022-11-04T01:08:00.732Z,5.00
2022-11-04T01:09:00.718Z,5.70
2022-11-04T01:10:00.711Z,5.50
2022-11-04T01:11:00.711Z,5.30
2022-11-04T01:12:00.709Z,4.90
2022-11-04T01:13:00.696Z,5.40
2022-11-04T01:14:00.685Z,6.00
2022-11-04T01:15:00.674Z,4.80
2022-11-04T01:16:00.681Z,5.60
2022-11-04T01:17:00.690Z,5.90
2022-11-04T01:18:00.691Z,6.00
2022-11-04T01:19:00.668Z,5.60
2022-11-04T01:20:00.636Z,6.20
2022-11-04T01:21:00.641Z,6.10
2022-11-04T01:22:00.628Z,6.60
2022-11-04T01:23:00.613Z,6.50
2022-11-04T01:24:00.617Z,6.10
2022-11-04T01:25:00.774Z,6.60
2022-11-04T01:26:00.592Z,7.00
2022-11-04T01:27:00.615Z,6.90
2022-11-04T01:28:00.580Z,6.60
2022-11-04T01:29:00.568Z,6.60
2022-11-04T01:30:00.560Z,5.70
2022-11-04T01:31:00.585Z,6.40
2022-11-04T01:32:00.543Z,5.60
2022-11-04T01:33:00.543Z,6.60
2022-11-04T01:34:00.558Z,6.40
2022-11-04T01:35:00.527Z,7.20
2022-11-04T01:36:00.528Z,6.90
2022-11-04T01:37:00.528Z,6.80
2022-11-04T01:38:00.506Z,5.90
2022-11-04T01:39:02.133Z,7.20
2022-11-04T01:40:00.484Z,5.70
2022-11-04T01:41:00.486Z,6.80
2022-11-04T01:42:00.557Z,7.50
2022-11-04T01:43:00.464Z,6.70
2022-11-04T01:44:00.463Z,6.10
2022-11-04T01:45:00.522Z,7.30
2022-11-04T01:46:00.445Z,6.70
2022-11-04T01:47:00.450Z,7.50
2022-11-04T01:48:00.454Z,7.00
2022-11-04T01:49:00.421Z,7.30
2022-11-04T01:50:00.445Z,7.10
2022-11-04T01:51:00.410Z,7.60
2022-11-04T01:52:00.410Z,7.60
2022-11-04T01:53:00.401Z,7.80
2022-11-04T01:54:00.390Z,7.50
2022-11-04T01:55:00.385Z,7.30
2022-11-04T01:56:00.375Z,7.80
2022-11-04T01:57:00.366Z,9.30
2022-11-04T01:58:01.859Z,8.20
2022-11-04T01:59:00.368Z,8.70
2022-11-04T02:00:00.347Z,8.90
2022-11-04T02:01:00.375Z,8.20
2022-11-04T02:02:00.450Z,9.20
2022-11-04T02:03:00.319Z,9.20
2022-11-04T02:04:00.725Z,9.40
2022-11-04T02:05:00.322Z,9.80
2022-11-04T02:06:00.320Z,10.70
2022-11-04T02:07:00.358Z,12.10
2022-11-04T02:08:00.278Z,11.60
2022-11-04T02:09:00.341Z,11.40
2022-11-04T02:10:01.117Z,11.20
2022-11-04T02:11:00.255Z,10.90
2022-11-04T02:12:00.256Z,10.20
2022-11-04T02:13:00.262Z,11.00
2022-11-04T02:14:00.237Z,10.60
2022-11-04T02:15:00.244Z,10.80
2022-11-04T02:16:00.237Z,10.40
2022-11-04T02:17:00.213Z,11.60
2022-11-04T02:18:00.216Z,10.10
2022-11-04T02:19:00.201Z,10.60
2022-11-04T02:20:00.202Z,9.50
2022-11-04T02:21:00.921Z,11.10
2022-11-04T02:22:00.203Z,11.00
2022-11-04T02:23:00.179Z,10.70
2022-11-04T02:24:00.167Z,10.80
2022-11-04T02:25:00.163Z,11.30
2022-11-04T02:26:00.161Z,10.40
2022-11-04T02:27:00.160Z,9.50
2022-11-04T02:28:00.164Z,8.60
2022-11-04T02:29:00.136Z,8.20
2022-11-04T02:30:00.159Z,8.90
2022-11-04T02:31:00.173Z,8.50
2022-11-04T02:32:00.115Z,8.40
2022-11-04T02:33:00.119Z,8.50
2022-11-04T02:34:00.099Z,7.90
2022-11-04T02:35:00.106Z,8.00
2022-11-04T02:36:00.105Z,7.10
2022-11-04T02:37:00.076Z,6.80
2022-11-04T02:38:00.792Z,5.10
2022-11-04T02:39:00.056Z,4.70
2022-11-04T02:40:00.058Z,4.90
2022-11-04T02:41:00.064Z,4.40
2022-11-04T02:42:00.039Z,3.30
2022-11-04T02:43:00.038Z,3.70
2022-11-04T02:44:00.042Z,2.50
2022-11-04T02:45:00.016Z,2.50
2022-11-04T02:46:00.012Z,2.70
2022-11-04T02:47:00.002Z,2.40
2022-11-04T02:47:59.996Z,1.90
2022-11-04T02:48:59.987Z,2.20
2022-11-04T02:50:00.770Z,1.80
2022-11-04T02:50:59.971Z,2.40
2022-11-04T02:51:59.972Z,2.00
2022-11-04T02:52:59.962Z,1.70
2022-11-04T02:53:59.973Z,1.90
2022-11-04T02:55:01.415Z,1.60
2022-11-04T02:55:59.941Z,1.30
2022-11-04T02:57:00.854Z,1.50
2022-11-04T02:57:59.917Z,1.10
2022-11-04T02:58:59.902Z,1.50
2022-11-04T02:59:59.907Z,1.50
2022-11-04T03:00:59.962Z,1.30
2022-11-04T03:01:59.996Z,1.30
2022-11-04T03:02:59.882Z,1.20
2022-11-04T03:03:59.885Z,0.90
2022-11-04T03:04:59.959Z,0.80
2022-11-04T03:05:59.856Z,0.80
2022-11-04T03:06:59.908Z,0.70
2022-11-04T03:07:59.938Z,1.10
2022-11-04T03:08:59.830Z,1.00
2022-11-04T03:09:59.861Z,0.90
2022-11-04T03:10:59.924Z,0.70
2022-11-04T03:11:59.819Z,0.70
2022-11-04T03:12:59.810Z,0.70
2022-11-04T03:13:59.803Z,0.60
2022-11-04T03:14:59.814Z,0.60
2022-11-04T03:15:59.783Z,0.60
2022-11-04T03:16:59.775Z,0.60
2022-11-04T03:17:59.775Z,0.80
2022-11-04T03:19:01.018Z,0.80
2022-11-04T03:19:59.765Z,0.60
2022-11-04T03:20:59.753Z,0.60
2022-11-04T03:21:59.755Z,0.80
2022-11-04T03:22:59.797Z,0.70
2022-11-04T03:24:00.494Z,0.60
2022-11-04T03:24:59.715Z,0.90
2022-11-04T03:25:59.741Z,0.80
2022-11-04T03:26:59.705Z,0.80
2022-11-04T03:27:59.701Z,0.90
2022-11-04T03:29:00.136Z,1.00
2022-11-04T03:29:59.683Z,1.00
2022-11-04T03:30:59.678Z,1.00
2022-11-04T03:31:59.668Z,0.70
2022-11-04T03:32:59.658Z,0.70
2022-11-04T03:33:59.712Z,1.00
2022-11-04T03:34:59.986Z,0.80
2022-11-04T03:35:59.633Z,1.00
2022-11-04T03:36:59.630Z,0.70
2022-11-04T03:37:59.623Z,0.90
2022-11-04T03:38:59.606Z,0.70
2022-11-04T03:39:59.623Z,1.00
2022-11-04T03:40:59.604Z,0.70
2022-11-04T03:41:59.628Z,1.10
2022-11-04T03:42:59.608Z,0.80
2022-11-04T03:43:59.587Z,1.00
2022-11-04T03:44:59.566Z,0.90
2022-11-04T03:45:59.564Z,0.90
2022-11-04T03:46:59.551Z,0.90
2022-11-04T03:47:59.951Z,1.20
2022-11-04T03:48:59.542Z,1.10
2022-11-04T03:49:59.963Z,1.20
2022-11-04T03:50:59.520Z,1.10
2022-11-04T03:51:59.520Z,1.20
2022-11-04T03:52:59.517Z,1.00
2022-11-04T03:53:59.524Z,1.30
2022-11-04T03:54:59.510Z,1.40
2022-11-04T03:55:59.504Z,1.30
2022-11-04T03:56:59.475Z,1.20
2022-11-04T03:57:59.500Z,1.50
2022-11-04T03:58:59.472Z,1.50
2022-11-04T03:59:59.473Z,1.60
2022-11-04T04:00:59.480Z,2.10
2022-11-04T04:01:59.533Z,1.80
2022-11-04T04:02:59.440Z,1.60
2022-11-04T04:03:59.455Z,1.90
2022-11-04T04:04:59.418Z,1.40
2022-11-04T04:05:59.424Z,1.40
2022-11-04T04:06:59.409Z,1.30
2022-11-04T04:07:59.402Z,1.20
2022-11-04T04:08:59.812Z,1.10
2022-11-04T04:09:59.391Z,1.20
2022-11-04T04:10:59.374Z,1.20
2022-11-04T04:11:59.377Z,1.50
2022-11-04T04:12:59.371Z,1.40
2022-11-04T04:13:59.377Z,1.30
2022-11-04T04:14:59.363Z,1.30
2022-11-04T04:15:59.342Z,1.20
2022-11-04T04:16:59.414Z,1.20
2022-11-04T04:17:59.339Z,1.40
2022-11-04T04:18:59.319Z,1.30
2022-11-04T04:19:59.750Z,1.70
2022-11-04T04:20:59.309Z,1.40
2022-11-04T04:21:59.299Z,1.90
2022-11-04T04:22:59.300Z,1.20
2022-11-04T04:23:59.286Z,1.70
2022-11-04T04:24:59.352Z,1.90
2022-11-04T04:25:59.279Z,2.10
2022-11-04T04:26:59.268Z,1.80
2022-11-04T04:27:59.262Z,1.80
2022-11-04T04:28:59.257Z,2.40
2022-11-04T04:30:00.750Z,1.70
2022-11-04T04:31:00.289Z,2.00
2022-11-04T04:31:59.233Z,1.90
2022-11-04T04:32:59.219Z,2.00
2022-11-04T04:33:59.230Z,2.10
2022-11-04T04:34:59.210Z,1.50
2022-11-04T04:35:59.212Z,1.80
2022-11-04T04:36:59.203Z,1.90
2022-11-04T04:37:59.185Z,1.60
2022-11-04T04:38:59.179Z,1.90
2022-11-04T04:39:59.191Z,1.90
2022-11-04T04:41:59.161Z,1.70
2022-11-04T04:42:59.152Z,1.80
2022-11-04T04:43:59.141Z,1.70
2022-11-04T04:44:59.146Z,2.10
2022-11-04T04:45:59.152Z,1.80
2022-11-04T04:46:59.131Z,2.00
2022-11-04T04:47:59.125Z,2.00
2022-11-04T04:48:59.113Z,1.60
2022-11-04T04:49:59.121Z,2.30
2022-11-04T04:50:59.100Z,1.90
2022-11-04T04:51:59.104Z,1.60
2022-11-04T04:52:59.092Z,1.50
2022-11-04T04:53:59.124Z,1.30
2022-11-04T04:54:59.070Z,1.60
2022-11-04T04:55:59.069Z,1.60
2022-11-04T04:56:59.061Z,1.80
2022-11-04T04:57:59.052Z,1.50
2022-11-04T04:58:59.049Z,1.70
2022-11-04T04:59:59.044Z,1.90
2022-11-04T05:00:59.093Z,1.60
2022-11-04T05:01:59.227Z,1.70
2022-11-04T05:02:59.013Z,1.40
2022-11-04T05:03:59.038Z,1.40
2022-11-04T05:04:59.016Z,1.60
2022-11-04T05:05:59.012Z,1.50
2022-11-04T05:06:58.997Z,1.60
2022-11-04T05:07:58.994Z,1.40
2022-11-04T05:08:58.978Z,1.40
2022-11-04T05:09:58.970Z,1.30
2022-11-04T05:10:58.982Z,1.40
2022-11-04T05:11:58.960Z,1.30
2022-11-04T05:12:58.967Z,1.30
2022-11-04T05:13:58.957Z,1.30
2022-11-04T05:14:58.941Z,1.10
2022-11-04T05:15:58.927Z,1.00
2022-11-04T05:16:58.929Z,0.90
2022-11-04T05:17:58.946Z,1.20
2022-11-04T05:18:59.583Z,1.00
2022-11-04T05:19:58.916Z,1.10
2022-11-04T05:20:58.906Z,0.90
2022-11-04T05:21:58.947Z,1.40
2022-11-04T05:22:58.879Z,1.10
2022-11-04T05:23:58.873Z,1.10
2022-11-04T05:24:58.896Z,1.50
2022-11-04T05:25:58.867Z,1.10
2022-11-04T05:26:58.855Z,1.20
2022-11-04T05:27:58.843Z,0.80
2022-11-04T05:28:58.867Z,1.00
2022-11-04T05:29:58.828Z,1.10
2022-11-04T05:30:58.830Z,1.10
2022-11-04T05:31:58.826Z,0.90
2022-11-04T05:33:01.772Z,1.50
2022-11-04T05:34:00.665Z,1.10
2022-11-04T05:34:58.828Z,0.90
2022-11-04T05:35:58.798Z,1.20
2022-11-04T05:36:58.797Z,1.10
2022-11-04T05:37:58.821Z,1.10
2022-11-04T05:38:58.778Z,1.20
2022-11-04T05:39:58.792Z,0.80
2022-11-04T05:40:59.175Z,1.10
2022-11-04T05:41:58.763Z,1.40
2022-11-04T05:42:58.751Z,1.00
2022-11-04T05:43:58.748Z,0.90
2022-11-04T05:44:58.733Z,1.00
2022-11-04T05:45:58.750Z,1.20
2022-11-04T05:46:58.725Z,1.20
2022-11-04T05:47:58.716Z,1.00
2022-11-04T05:48:58.722Z,0.70
2022-11-04T05:49:58.721Z,1.20
2022-11-04T05:50:58.705Z,0.80
2022-11-04T05:51:59.114Z,0.90
2022-11-04T05:52:58.680Z,0.90
2022-11-04T05:53:58.680Z,1.00
2022-11-04T05:54:58.667Z,0.80
2022-11-04T05:55:58.660Z,0.80
2022-11-04T05:56:58.723Z,1.30
2022-11-04T05:57:58.689Z,1.00
2022-11-04T05:58:58.671Z,0.60
2022-11-04T05:59:58.638Z,0.80
2022-11-04T06:00:58.636Z,0.80
2022-11-04T06:01:58.790Z,0.80
2022-11-04T06:02:58.715Z,0.60
2022-11-04T06:03:58.631Z,0.80
2022-11-04T06:04:59.217Z,0.90
2022-11-04T06:05:58.665Z,1.10
2022-11-04T06:06:58.590Z,1.00
2022-11-04T06:07:58.582Z,1.10
2022-11-04T06:08:58.675Z,0.90
2022-11-04T06:09:58.584Z,0.90
2022-11-04T06:10:58.564Z,0.90
2022-11-04T06:11:58.583Z,0.90
2022-11-04T06:12:58.545Z,1.20
2022-11-04T06:13:58.609Z,1.00
2022-11-04T06:14:58.544Z,0.90
2022-11-04T06:15:58.548Z,1.00
2022-11-04T06:16:58.613Z,0.80
2022-11-04T06:17:58.521Z,1.10
2022-11-04T06:19:01.641Z,1.10
2022-11-04T06:19:59.499Z,1.10
2022-11-04T06:20:59.306Z,1.10
2022-11-04T06:21:58.588Z,0.80
2022-11-04T06:22:58.525Z,0.90
2022-11-04T06:23:58.490Z,1.30
2022-11-04T06:24:58.475Z,1.00
2022-11-04T06:25:58.467Z,1.00
2022-11-04T06:26:58.453Z,1.10
2022-11-04T06:27:58.466Z,1.00
2022-11-04T06:28:58.490Z,1.10
2022-11-04T06:29:58.455Z,1.10
2022-11-04T06:30:58.459Z,1.20
2022-11-04T06:31:58.455Z,1.30
2022-11-04T06:32:58.908Z,1.20
2022-11-04T06:33:58.412Z,1.40
2022-11-04T06:34:58.413Z,1.60
2022-11-04T06:35:58.393Z,1.40
2022-11-04T06:36:58.432Z,1.50
2022-11-04T06:37:58.403Z,1.60
2022-11-04T06:39:04.137Z,1.20
2022-11-04T06:39:59.700Z,1.30
2022-11-04T06:40:58.867Z,1.50
2022-11-04T06:42:01.337Z,1.40
2022-11-04T06:42:58.347Z,1.70
2022-11-04T06:43:58.344Z,2.00
2022-11-04T06:44:58.341Z,1.40
2022-11-04T06:45:58.346Z,1.30
2022-11-04T06:46:58.347Z,1.40
2022-11-04T06:47:58.329Z,1.50
2022-11-04T06:48:58.315Z,1.30
2022-11-04T06:49:58.299Z,1.40
2022-11-04T06:50:58.292Z,1.60
2022-11-04T06:51:58.291Z,1.70
2022-11-04T06:52:58.302Z,1.60
2022-11-04T06:53:58.300Z,1.90
2022-11-04T06:54:58.293Z,1.90
2022-11-04T06:55:58.267Z,2.00
2022-11-04T06:56:58.264Z,1.80
2022-11-04T06:57:58.258Z,1.50
2022-11-04T06:58:58.412Z,1.70
2022-11-04T06:59:58.242Z,1.40
2022-11-04T07:00:58.293Z,1.50
2022-11-04T07:01:58.401Z,2.40
2022-11-04T07:02:58.263Z,1.90
2022-11-04T07:03:58.223Z,1.40
2022-11-04T07:05:58.206Z,1.70
2022-11-04T07:06:58.204Z,1.70
2022-11-04T07:07:58.607Z,7.20
2022-11-04T07:08:58.178Z,4.90
2022-11-04T07:09:58.213Z,2.20
2022-11-04T07:10:58.180Z,2.00
2022-11-04T07:11:58.150Z,2.10
2022-11-04T07:12:58.155Z,2.40
2022-11-04T07:13:58.136Z,1.80
2022-11-04T07:14:58.125Z,2.40
2022-11-04T07:15:58.120Z,1.70
2022-11-04T07:16:58.139Z,1.80
2022-11-04T07:17:58.113Z,1.80
2022-11-04T07:18:58.097Z,1.60
2022-11-04T07:19:58.103Z,1.70
2022-11-04T07:20:58.090Z,1.30
2022-11-04T07:21:58.555Z,2.00
2022-11-04T07:22:58.103Z,1.10
2022-11-04T07:23:58.070Z,1.40
2022-11-04T07:24:58.065Z,1.10
2022-11-04T07:25:58.084Z,1.20
2022-11-04T07:26:58.059Z,1.20
2022-11-04T07:28:01.141Z,1.20
2022-11-04T07:28:58.050Z,1.10
2022-11-04T07:29:58.676Z,1.20
2022-11-04T07:30:58.018Z,1.00
2022-11-04T07:31:58.014Z,1.00
2022-11-04T07:32:58.019Z,1.20
2022-11-04T07:33:57.996Z,1.00
2022-11-04T07:34:57.990Z,1.20
2022-11-04T07:35:58.603Z,1.20
2022-11-04T07:36:57.975Z,1.20
2022-11-04T07:37:58.055Z,1.10
2022-11-04T07:38:58.423Z,1.00
2022-11-04T07:39:57.971Z,1.10
2022-11-04T07:40:57.951Z,1.20
2022-11-04T07:41:59.668Z,1.30
2022-11-04T07:42:57.927Z,1.40
2022-11-04T07:43:57.923Z,1.00
2022-11-04T07:44:57.917Z,1.00
2022-11-04T07:45:57.951Z,1.30
2022-11-04T07:46:57.912Z,0.90
2022-11-04T07:47:57.943Z,2.20
2022-11-04T07:48:57.891Z,1.30
2022-11-04T07:49:57.980Z,1.10
2022-11-04T07:50:57.878Z,1.90
2022-11-04T07:51:57.865Z,1.10
2022-11-04T07:52:57.864Z,1.00
2022-11-04T07:53:57.854Z,0.90
2022-11-04T07:55:04.951Z,1.80
2022-11-04T07:55:57.841Z,0.80
2022-11-04T07:56:57.849Z,1.10
2022-11-04T07:57:57.953Z,1.70
2022-11-04T07:58:57.824Z,1.20
2022-11-04T07:59:57.810Z,1.10
2022-11-04T08:00:58.798Z,1.20
2022-11-04T08:01:58.031Z,1.00
2022-11-04T08:02:57.860Z,1.20
2022-11-04T08:03:57.779Z,1.40
2022-11-04T08:04:57.877Z,1.40
2022-11-04T08:05:57.819Z,1.30
2022-11-04T08:06:57.775Z,1.00
2022-11-04T08:07:57.783Z,1.00
2022-11-04T08:08:57.816Z,1.00
2022-11-04T08:09:57.791Z,1.00
2022-11-04T08:10:57.754Z,1.00
2022-11-04T08:11:57.785Z,0.80
2022-11-04T08:12:57.717Z,0.80
2022-11-04T08:13:57.748Z,0.70
2022-11-04T08:14:57.720Z,1.00
2022-11-04T08:15:57.711Z,1.20
2022-11-04T08:16:57.711Z,1.30
2022-11-04T08:17:57.725Z,1.60
2022-11-04T08:18:57.693Z,1.00
2022-11-04T08:19:57.687Z,1.10
2022-11-04T08:20:57.669Z,1.00
2022-11-04T08:21:58.077Z,1.50
2022-11-04T08:22:57.659Z,1.20
2022-11-04T08:23:57.648Z,1.10
2022-11-04T08:24:57.644Z,0.90
2022-11-04T08:25:57.631Z,3.60
2022-11-04T08:26:57.759Z,1.20
2022-11-04T08:28:00.876Z,1.00
2022-11-04T08:28:57.637Z,0.90
2022-11-04T08:29:57.666Z,1.10
2022-11-04T08:30:57.631Z,1.00
2022-11-04T08:31:57.623Z,1.10
2022-11-04T08:32:57.575Z,1.10
2022-11-04T08:33:58.320Z,0.70
2022-11-04T08:34:57.566Z,0.90
2022-11-04T08:35:57.618Z,1.30
2022-11-04T08:36:58.486Z,1.00
2022-11-04T08:37:57.587Z,1.10
2022-11-04T08:38:57.535Z,1.10
2022-11-04T08:39:58.201Z,1.00
2022-11-04T08:41:00.094Z,1.00
2022-11-04T08:41:57.539Z,1.10
2022-11-04T08:42:57.531Z,1.40
2022-11-04T08:43:57.522Z,1.10
2022-11-04T08:44:57.492Z,1.50
2022-11-04T08:45:57.500Z,1.70
2022-11-04T08:46:57.500Z,1.30
2022-11-04T08:48:01.370Z,1.10
2022-11-04T08:48:58.459Z,1.00
2022-11-04T08:49:57.478Z,1.30
2022-11-04T08:50:57.506Z,1.20
2022-11-04T08:51:57.453Z,1.40
2022-11-04T08:52:58.288Z,1.20
2022-11-04T08:53:57.445Z,1.50
2022-11-04T08:54:57.697Z,1.20
2022-11-04T08:55:57.406Z,1.30
2022-11-04T08:56:57.419Z,1.40
2022-11-04T08:57:57.452Z,1.40
2022-11-04T08:58:57.422Z,1.30
2022-11-04T08:59:57.373Z,1.40
2022-11-04T09:00:57.365Z,1.50
2022-11-04T09:01:57.645Z,1.50
2022-11-04T09:02:57.357Z,1.20
2022-11-04T09:03:57.953Z,1.30
2022-11-04T09:04:57.345Z,1.20
2022-11-04T09:05:57.358Z,1.30
2022-11-04T09:06:57.387Z,1.30
2022-11-04T09:07:57.350Z,1.50
2022-11-04T09:08:57.441Z,1.60
2022-11-04T09:09:57.403Z,1.20
2022-11-04T09:10:57.309Z,1.20
2022-11-04T09:11:57.322Z,1.40
2022-11-04T09:12:57.280Z,1.40
2022-11-04T09:13:57.289Z,1.40
2022-11-04T09:14:57.295Z,1.40
2022-11-04T09:15:57.427Z,1.40
2022-11-04T09:16:57.271Z,3.10
2022-11-04T09:17:57.378Z,1.30
2022-11-04T09:18:57.292Z,2.20
2022-11-04T09:19:57.253Z,1.50
2022-11-04T09:20:57.247Z,1.90
2022-11-04T09:21:57.278Z,1.20
2022-11-04T09:22:57.233Z,1.20
2022-11-04T09:23:57.235Z,1.30
2022-11-04T09:24:57.231Z,1.50
2022-11-04T09:25:57.199Z,1.50
2022-11-04T09:26:57.269Z,1.30
2022-11-04T09:27:57.178Z,1.10
2022-11-04T09:28:57.175Z,1.30
2022-11-04T09:29:57.189Z,1.40
2022-11-04T09:30:57.378Z,1.40
2022-11-04T09:31:57.154Z,1.40
2022-11-04T09:32:57.174Z,1.20
2022-11-04T09:33:57.293Z,1.40
2022-11-04T09:34:57.120Z,1.60
2022-11-04T09:35:57.140Z,1.50
2022-11-04T09:36:57.135Z,2.40
2022-11-04T09:37:57.162Z,1.30
2022-11-04T09:38:57.093Z,1.70
2022-11-04T09:39:57.101Z,1.40
2022-11-04T09:40:57.076Z,1.40
2022-11-04T09:41:57.077Z,1.50
2022-11-04T09:42:57.129Z,1.30
2022-11-04T09:43:57.071Z,1.90
2022-11-04T09:45:20.559Z,1.50
2022-11-04T09:45:58.044Z,1.30
2022-11-04T09:46:57.063Z,1.90
2022-11-04T09:47:57.884Z,1.70
2022-11-04T09:48:57.039Z,1.60
2022-11-04T09:49:57.153Z,1.50
2022-11-04T09:50:57.015Z,1.40
2022-11-04T09:51:57.008Z,1.30
2022-11-04T09:52:57.103Z,1.30
2022-11-04T09:53:56.993Z,1.40
2022-11-04T09:54:57.647Z,1.40
2022-11-04T09:55:57.427Z,1.50
2022-11-04T09:56:57.041Z,1.20
2022-11-04T09:57:57.083Z,1.00
2022-11-04T09:58:57.441Z,1.10
2022-11-04T09:59:57.065Z,1.40
2022-11-04T10:00:56.998Z,1.30
2022-11-04T10:01:57.095Z,1.30
2022-11-04T10:02:56.939Z,1.20
2022-11-04T10:03:56.934Z,1.60
2022-11-04T10:04:56.911Z,1.60
2022-11-04T10:05:57.009Z,1.20
2022-11-04T10:06:56.986Z,1.50
2022-11-04T10:07:57.677Z,1.30
2022-11-04T10:08:56.906Z,1.30
2022-11-04T10:09:56.996Z,1.20
2022-11-04T10:10:56.907Z,1.30
2022-11-04T10:11:56.855Z,1.30
2022-11-04T10:12:56.863Z,1.50
2022-11-04T10:13:56.873Z,1.20
2022-11-04T10:14:57.630Z,1.30
2022-11-04T10:15:56.839Z,1.20
2022-11-04T10:16:56.831Z,2.10
2022-11-04T10:17:56.886Z,1.40
2022-11-04T10:18:56.846Z,1.70
2022-11-04T10:19:56.815Z,1.20
2022-11-04T10:20:56.790Z,2.00
2022-11-04T10:21:56.944Z,1.30
2022-11-04T10:22:56.772Z,1.70
2022-11-04T10:23:57.726Z,1.70
2022-11-04T10:24:56.790Z,1.10
2022-11-04T10:25:56.834Z,1.60
2022-11-04T10:27:00.462Z,1.00
2022-11-04T10:27:56.890Z,1.20
2022-11-04T10:28:57.146Z,1.40
2022-11-04T10:29:56.787Z,1.20
2022-11-04T10:30:56.739Z,1.10
2022-11-04T10:31:56.930Z,1.00
2022-11-04T10:32:56.733Z,1.00
2022-11-04T10:33:56.704Z,1.30
2022-11-04T10:34:56.729Z,2.30
2022-11-04T10:35:56.796Z,1.70
2022-11-04T10:36:56.703Z,1.10
2022-11-04T10:37:56.779Z,1.50
2022-11-04T10:38:56.689Z,1.30
2022-11-04T10:39:56.786Z,9.40
2022-11-04T10:40:56.664Z,4.60
2022-11-04T10:41:56.654Z,2.10
2022-11-04T10:42:56.651Z,1.70
2022-11-04T10:43:57.221Z,1.30
2022-11-04T10:44:56.629Z,1.50
2022-11-04T10:45:56.708Z,1.40
2022-11-04T10:46:57.667Z,1.20
2022-11-04T10:47:56.602Z,1.10
2022-11-04T10:48:56.595Z,1.20
2022-11-04T10:50:26.608Z,1.40
2022-11-04T10:50:57.658Z,1.00
2022-11-04T10:51:56.576Z,9.10
2022-11-04T10:52:56.565Z,1.10
2022-11-04T10:53:56.735Z,1.20
2022-11-04T10:54:56.667Z,1.20
2022-11-04T10:55:56.640Z,1.10
2022-11-04T10:56:56.675Z,1.20
2022-11-04T10:57:56.518Z,1.40
2022-11-04T10:58:56.548Z,1.70
2022-11-04T10:59:56.569Z,1.40
2022-11-04T11:00:56.606Z,1.40
2022-11-04T11:01:56.776Z,1.00
2022-11-04T11:02:56.493Z,1.10
2022-11-04T11:03:56.481Z,1.50
2022-11-04T11:04:56.499Z,7.60
2022-11-04T11:05:56.529Z,0.90
2022-11-04T11:06:56.460Z,1.40
2022-11-04T11:07:56.440Z,1.20
2022-11-04T11:08:56.465Z,1.30
2022-11-04T11:09:56.457Z,1.10
2022-11-04T11:10:56.432Z,1.30
2022-11-04T11:11:56.424Z,1.20
2022-11-04T11:12:58.087Z,1.00
2022-11-04T11:13:56.517Z,1.30
2022-11-04T11:14:56.439Z,1.10
2022-11-04T11:15:56.453Z,1.20
2022-11-04T11:16:57.189Z,1.40
2022-11-04T11:17:56.409Z,1.50
2022-11-04T11:18:56.390Z,1.30
2022-11-04T11:19:56.387Z,1.70
2022-11-04T11:20:56.359Z,1.70
2022-11-04T11:21:56.432Z,1.50
2022-11-04T11:23:00.478Z,1.40
2022-11-04T11:23:57.351Z,1.30
2022-11-04T11:24:56.345Z,1.00
2022-11-04T11:25:56.419Z,1.20
2022-11-04T11:26:56.317Z,1.20
2022-11-04T11:27:56.747Z,1.50
2022-11-04T11:28:59.222Z,1.40
2022-11-04T11:29:56.314Z,1.10
2022-11-04T11:30:56.272Z,0.70
2022-11-04T11:31:57.125Z,1.20
2022-11-04T11:32:56.284Z,1.10
2022-11-04T11:33:56.285Z,1.20
2022-11-04T11:34:56.270Z,1.30
2022-11-04T11:35:56.259Z,4.80
2022-11-04T11:36:56.250Z,1.30
2022-11-04T11:37:56.233Z,1.10
2022-11-04T11:38:56.216Z,1.00
2022-11-04T11:39:56.215Z,1.10
2022-11-04T11:41:23.429Z,1.50
2022-11-04T11:41:57.234Z,1.80
2022-11-04T11:42:56.681Z,4.40
2022-11-04T11:43:56.272Z,2.00
2022-11-04T11:44:56.176Z,2.00
2022-11-04T11:45:56.186Z,1.00
2022-11-04T11:46:56.163Z,1.40
2022-11-04T11:47:56.164Z,1.10
2022-11-04T11:48:56.163Z,1.00
2022-11-04T11:49:56.911Z,1.40
2022-11-04T11:50:56.143Z,0.90
2022-11-04T11:51:56.192Z,1.30
2022-11-04T11:52:56.125Z,1.30
2022-11-04T11:53:56.117Z,3.20
2022-11-04T11:54:56.105Z,2.20
2022-11-04T11:55:56.958Z,1.30
2022-11-04T11:57:13.277Z,1.10
2022-11-04T12:01:03.532Z,1.40
2022-11-04T12:01:57.193Z,1.10
2022-11-04T12:02:56.490Z,1.40
2022-11-04T12:09:57.018Z,1.30
2022-11-04T12:10:56.146Z,1.10
2022-11-04T12:11:55.988Z,1.60
2022-11-04T12:12:55.970Z,1.80
2022-11-04T12:13:55.987Z,1.60
2022-11-04T12:14:56.171Z,2.00
2022-11-04T12:15:55.961Z,1.90
2022-11-04T12:16:55.970Z,2.20
2022-11-04T12:17:56.015Z,1.60
2022-11-04T12:18:55.933Z,1.30
2022-11-04T12:19:55.922Z,1.90
2022-11-04T12:20:55.915Z,1.00
2022-11-04T12:21:55.918Z,1.30
2022-11-04T12:22:56.557Z,1.00
2022-11-04T12:23:56.742Z,2.90
2022-11-04T12:24:55.893Z,2.10
2022-11-04T12:25:55.887Z,6.70
2022-11-04T12:26:55.864Z,3.10
2022-11-04T12:27:55.878Z,1.40
2022-11-04T12:28:55.908Z,1.50
2022-11-04T12:29:55.889Z,1.30
2022-11-04T12:30:55.890Z,1.00
2022-11-04T12:31:56.017Z,1.20
2022-11-04T12:32:55.847Z,1.20
2022-11-04T12:33:55.878Z,1.80
2022-11-04T12:34:57.273Z,1.20
2022-11-04T12:35:55.873Z,1.60
2022-11-04T12:36:55.875Z,1.00
2022-11-04T12:37:55.916Z,2.40
2022-11-04T12:38:55.781Z,6.80
2022-11-04T12:39:55.837Z,4.10
2022-11-04T12:41:27.737Z,4.50
2022-11-04T12:42:20.011Z,7.60
2022-11-04T12:42:56.748Z,30.00
2022-11-04T12:43:55.758Z,2.90
2022-11-04T12:44:55.782Z,2.30
2022-11-04T12:45:55.771Z,1.20
2022-11-04T12:46:55.728Z,1.00
2022-11-04T12:47:55.736Z,1.00
2022-11-04T12:48:57.915Z,0.80
2022-11-04T12:49:55.724Z,1.00
2022-11-04T12:50:55.739Z,1.10
2022-11-04T12:51:55.951Z,1.40
2022-11-04T12:52:55.672Z,1.30
2022-11-04T12:53:55.662Z,1.10
2022-11-04T12:54:55.742Z,1.30
2022-11-04T12:55:55.649Z,0.90
2022-11-04T12:56:55.666Z,1.10
2022-11-04T12:57:55.648Z,1.00
2022-11-04T12:58:55.645Z,1.80
2022-11-04T12:59:55.627Z,1.60
2022-11-04T13:00:59.501Z,1.60
2022-11-04T13:01:55.732Z,1.40
2022-11-04T13:02:55.633Z,1.60
2022-11-04T13:03:56.032Z,1.20
2022-11-04T13:04:55.587Z,1.10
2022-11-04T13:05:55.755Z,1.60
2022-11-04T13:06:55.609Z,1.60
2022-11-04T13:07:55.636Z,1.20
2022-11-04T13:08:55.585Z,1.50
2022-11-04T13:09:55.595Z,2.10
2022-11-04T13:10:55.589Z,1.20
2022-11-04T13:11:55.665Z,1.60
2022-11-04T13:12:55.530Z,1.40
2022-11-04T13:14:01.417Z,2.00
2022-11-04T13:14:56.523Z,1.70
2022-11-04T13:15:55.511Z,1.50
2022-11-04T13:16:55.675Z,1.20
2022-11-04T13:17:55.576Z,0.90
2022-11-04T13:18:55.495Z,2.00
2022-11-04T13:19:56.036Z,1.50
2022-11-04T13:20:59.294Z,1.00
2022-11-04T13:21:56.458Z,1.20
2022-11-04T13:23:00.394Z,1.20
2022-11-04T13:23:56.483Z,1.50
2022-11-04T13:24:55.444Z,1.50
2022-11-04T13:25:55.484Z,1.20
2022-11-04T13:26:55.458Z,1.60
2022-11-04T13:27:55.419Z,1.20